createdAt,value
2018-11-21T00:02:07.188Z,24.72
2018-11-21T00:04:35.782Z,24.18
2018-11-21T00:07:04.544Z,23.77
2018-11-21T00:09:33.146Z,23.75
2018-11-21T00:12:01.739Z,23.80
2018-11-21T00:14:30.347Z,22.48
2018-11-21T00:16:58.992Z,25.50
2018-11-21T00:19:27.569Z,23.55
2018-11-21T00:21:56.126Z,25.20
2018-11-21T00:24:24.777Z,26.90
2018-11-21T00:26:53.409Z,23.65
2018-11-21T00:29:22.145Z,21.35
2018-11-21T00:31:50.683Z,22.93
2018-11-21T00:34:19.532Z,24.30
2018-11-21T00:36:48.103Z,22.98
2018-11-21T00:39:16.759Z,23.77
2018-11-21T00:41:45.450Z,24.27
2018-11-21T00:44:14.192Z,23.55
2018-11-21T00:46:42.808Z,23.02
2018-11-21T00:49:11.347Z,23.20
2018-11-21T00:51:39.958Z,26.40
2018-11-21T00:54:08.863Z,24.92
2018-11-21T00:56:37.272Z,26.65
2018-11-21T00:59:06.072Z,24.15
2018-11-21T01:01:35.881Z,22.90
2018-11-21T01:04:04.512Z,23.20
2018-11-21T01:06:33.106Z,23.62
2018-11-21T01:09:01.785Z,23.70
2018-11-21T01:11:30.350Z,22.37
2018-11-21T01:13:58.917Z,22.80
2018-11-21T01:16:27.754Z,24.52
2018-11-21T01:18:56.292Z,22.67
2018-11-21T01:21:24.961Z,23.95
2018-11-21T01:23:53.624Z,27.48
2018-11-21T01:26:22.769Z,23.25
2018-11-21T01:28:51.300Z,25.90
2018-11-21T01:31:19.875Z,25.23
2018-11-21T01:33:48.551Z,25.12
2018-11-21T01:36:17.387Z,23.42
2018-11-21T01:38:46.049Z,23.70
2018-11-21T01:41:14.705Z,23.02
2018-11-21T01:43:43.406Z,25.43
2018-11-21T01:46:11.915Z,24.35
2018-11-21T01:48:40.468Z,23.87
2018-11-21T01:51:09.082Z,21.93
2018-11-21T01:53:37.772Z,23.80
2018-11-21T01:56:06.445Z,24.45
2018-11-21T01:58:35.104Z,21.97
2018-11-21T02:01:03.838Z,22.87
2018-11-21T02:03:32.768Z,23.70
2018-11-21T02:06:01.324Z,21.90
2018-11-21T02:08:30.344Z,22.17
2018-11-21T02:10:58.944Z,20.48
2018-11-21T02:13:28.886Z,23.85
2018-11-21T02:15:57.497Z,22.82
2018-11-21T02:18:26.144Z,22.73
2018-11-21T02:20:54.680Z,21.85
2018-11-21T02:23:23.355Z,23.10
2018-11-21T02:25:51.885Z,21.15
2018-11-21T02:28:20.432Z,19.23
2018-11-21T02:30:49.080Z,21.93
2018-11-21T02:33:17.596Z,24.40
2018-11-21T02:35:46.417Z,22.75
2018-11-21T02:38:14.999Z,23.30
2018-11-21T02:40:43.618Z,23.40
2018-11-21T02:43:12.263Z,22.30
2018-11-21T02:45:40.811Z,21.12
2018-11-21T02:48:09.404Z,21.73
2018-11-21T02:50:37.919Z,20.32
2018-11-21T02:53:06.532Z,21.23
2018-11-21T02:55:35.117Z,23.20
2018-11-21T02:58:03.701Z,21.07
2018-11-21T03:00:32.257Z,21.07
2018-11-21T03:03:00.968Z,22.30
2018-11-21T03:05:29.539Z,22.65
2018-11-21T03:08:01.950Z,22.70
2018-11-21T03:10:30.580Z,20.50
2018-11-21T03:12:59.131Z,21.45
2018-11-21T03:15:29.346Z,23.15
2018-11-21T03:17:57.908Z,23.73
2018-11-21T03:20:26.523Z,21.33
2018-11-21T03:22:55.035Z,21.65
2018-11-21T03:25:23.613Z,23.42
2018-11-21T03:27:52.200Z,22.17
2018-11-21T03:30:20.851Z,23.38
2018-11-21T03:32:49.507Z,21.97
2018-11-21T03:35:18.063Z,20.77
2018-11-21T03:37:46.923Z,21.95
2018-11-21T03:40:15.497Z,21.33
2018-11-21T03:42:44.051Z,22.07
2018-11-21T03:45:13.096Z,23.38
2018-11-21T03:47:41.653Z,22.77
2018-11-21T03:50:11.506Z,22.22
2018-11-21T03:52:40.044Z,20.37
2018-11-21T03:55:09.399Z,19.95
2018-11-21T03:57:38.083Z,22.32
2018-11-21T04:00:09.075Z,21.20
2018-11-21T04:02:37.648Z,21.48
2018-11-21T04:05:07.416Z,21.85
2018-11-21T04:07:36.053Z,22.45
2018-11-21T04:10:06.675Z,23.02
2018-11-21T04:12:35.236Z,23.70
2018-11-21T04:15:04.006Z,23.87
2018-11-21T04:17:32.589Z,23.02
2018-11-21T04:20:01.155Z,25.32
2018-11-21T04:22:29.785Z,23.85
2018-11-21T04:24:58.394Z,22.93
2018-11-21T04:27:27.092Z,23.38
2018-11-21T04:29:55.676Z,20.60
2018-11-21T04:32:24.286Z,24.00
2018-11-21T04:34:53.090Z,24.92
2018-11-21T04:37:21.622Z,22.40
2018-11-21T04:39:51.354Z,23.05
2018-11-21T04:42:20.041Z,23.67
2018-11-21T04:44:48.647Z,22.67
2018-11-21T04:47:17.223Z,22.30
2018-11-21T04:49:45.796Z,23.47
2018-11-21T04:52:14.610Z,23.10
2018-11-21T04:54:43.312Z,24.25
2018-11-21T04:57:22.749Z,22.73
2018-11-21T04:59:51.506Z,23.55
2018-11-21T05:02:19.920Z,22.93
2018-11-21T05:04:48.506Z,23.42
2018-11-21T05:07:17.601Z,23.83
2018-11-21T05:09:46.330Z,23.40
2018-11-21T05:12:15.197Z,26.07
2018-11-21T05:14:43.812Z,24.75
2018-11-21T05:17:12.518Z,24.25
2018-11-21T05:19:41.183Z,21.42
2018-11-21T05:22:09.744Z,21.12
2018-11-21T05:24:38.382Z,22.55
2018-11-21T05:27:07.239Z,24.30
2018-11-21T05:29:35.950Z,22.48
2018-11-21T05:32:05.555Z,20.70
2018-11-21T05:34:34.437Z,23.70
2018-11-21T05:37:03.164Z,23.75
2018-11-21T05:39:31.799Z,20.55
2018-11-21T05:42:00.426Z,19.75
2018-11-21T05:44:31.467Z,22.50
2018-11-21T05:46:58.414Z,23.42
2018-11-21T05:49:26.993Z,19.95
2018-11-21T05:51:55.894Z,20.35
2018-11-21T05:54:24.599Z,22.05
2018-11-21T05:56:53.259Z,21.75
2018-11-21T05:59:21.878Z,22.82
2018-11-21T06:01:50.534Z,22.67
2018-11-21T06:04:19.273Z,23.22
2018-11-21T06:06:48.936Z,24.82
2018-11-21T06:09:17.660Z,24.20
2018-11-21T06:11:46.365Z,22.70
2018-11-21T06:14:14.914Z,21.52
2018-11-21T06:16:43.640Z,22.50
2018-11-21T06:19:12.422Z,20.37
2018-11-21T06:21:40.960Z,24.50
2018-11-21T06:24:09.835Z,23.65
2018-11-21T06:26:39.981Z,21.73
2018-11-21T06:29:08.759Z,21.97
2018-11-21T06:31:37.598Z,23.00
2018-11-21T06:34:06.382Z,99.35
2018-11-21T06:36:34.963Z,27.95
2018-11-21T06:39:04.873Z,28.07
2018-11-21T06:41:33.483Z,22.25
2018-11-21T06:44:02.101Z,22.75
2018-11-21T06:46:31.024Z,23.73
2018-11-21T06:48:59.641Z,21.60
2018-11-21T06:51:28.222Z,23.90
2018-11-21T06:53:58.150Z,21.30
2018-11-21T06:56:26.904Z,23.73
2018-11-21T06:58:55.907Z,20.72
2018-11-21T07:01:24.686Z,22.27
2018-11-21T07:03:53.254Z,21.20
2018-11-21T07:06:21.896Z,24.80
2018-11-21T07:08:50.985Z,22.27
2018-11-21T07:11:19.815Z,23.45
2018-11-21T07:13:48.773Z,23.38
2018-11-21T07:16:17.503Z,22.52
2018-11-21T07:18:46.149Z,21.77
2018-11-21T07:21:14.945Z,22.22
2018-11-21T07:23:43.604Z,23.62
2018-11-21T07:26:12.186Z,22.62
2018-11-21T07:28:46.586Z,24.92
2018-11-21T07:31:17.942Z,24.12
2018-11-21T07:33:46.767Z,20.00
2018-11-21T07:36:15.301Z,26.93
2018-11-21T07:38:44.356Z,22.15
2018-11-21T07:41:13.099Z,24.80
2018-11-21T07:43:42.055Z,23.02
2018-11-21T07:46:10.718Z,22.90
2018-11-21T07:48:39.409Z,21.80
2018-11-21T07:51:08.065Z,23.55
2018-11-21T07:53:36.751Z,22.90
2018-11-21T07:56:31.253Z,22.05
2018-11-21T07:59:00.054Z,21.35
2018-11-21T08:01:31.268Z,22.67
2018-11-21T08:04:05.609Z,23.77
2018-11-21T08:06:46.660Z,24.27
2018-11-21T08:09:33.350Z,25.10
2018-11-21T08:12:21.914Z,22.00
2018-11-21T08:15:19.079Z,22.98
2018-11-21T08:18:02.785Z,24.77
2018-11-21T08:20:53.407Z,23.55
2018-11-21T08:23:40.419Z,24.80
2018-11-21T08:26:31.081Z,23.92
2018-11-21T08:28:59.751Z,23.12
2018-11-21T08:31:28.341Z,22.15
2018-11-21T08:33:57.038Z,21.65
2018-11-21T08:36:25.612Z,23.20
2018-11-21T08:38:54.219Z,23.40
2018-11-21T08:41:22.937Z,23.62
2018-11-21T08:43:51.587Z,20.80
2018-11-21T08:46:20.147Z,22.62
2018-11-21T08:48:48.693Z,21.70
2018-11-21T08:51:17.357Z,23.10
2018-11-21T08:53:46.011Z,20.95
2018-11-21T08:56:14.560Z,21.40
2018-11-21T08:58:43.103Z,22.22
2018-11-21T09:01:11.810Z,23.30
2018-11-21T09:03:40.351Z,21.85
2018-11-21T09:06:08.881Z,23.50
2018-11-21T09:08:37.510Z,20.40
2018-11-21T09:11:06.420Z,22.60
2018-11-21T09:13:35.365Z,22.25
2018-11-21T09:16:04.330Z,20.65
2018-11-21T09:18:33.214Z,21.60
2018-11-21T09:21:01.850Z,21.37
2018-11-21T09:23:30.487Z,23.15
2018-11-21T09:25:59.371Z,23.22
2018-11-21T09:28:28.202Z,21.97
2018-11-21T09:30:57.135Z,23.10
2018-11-21T09:33:26.091Z,20.57
2018-11-21T09:35:54.730Z,22.32
2018-11-21T09:38:23.488Z,19.15
2018-11-21T09:40:52.036Z,22.17
2018-11-21T09:43:20.660Z,19.77
2018-11-21T09:45:49.470Z,19.02
2018-11-21T09:48:18.167Z,20.82
2018-11-21T09:50:46.802Z,20.70
2018-11-21T09:53:15.733Z,23.07
2018-11-21T09:55:44.497Z,20.55
2018-11-21T09:58:13.323Z,20.55
2018-11-21T10:01:18.152Z,20.95
2018-11-21T10:03:49.113Z,20.80
2018-11-21T10:06:22.477Z,22.60
2018-11-21T10:08:55.439Z,21.73
2018-11-21T10:11:24.117Z,22.13
2018-11-21T10:13:52.738Z,21.87
2018-11-21T10:16:21.345Z,22.13
2018-11-21T10:18:51.698Z,22.65
2018-11-21T10:21:21.843Z,23.98
2018-11-21T10:23:50.516Z,21.70
2018-11-21T10:26:19.216Z,22.52
2018-11-21T10:28:48.449Z,21.45
2018-11-21T10:31:17.017Z,21.60
2018-11-21T10:33:45.542Z,22.15
2018-11-21T10:36:14.148Z,20.72
2018-11-21T10:38:43.080Z,21.68
2018-11-21T10:41:11.743Z,21.57
2018-11-21T10:43:40.248Z,22.95
2018-11-21T10:46:09.145Z,21.75
2018-11-21T10:48:37.832Z,23.55
2018-11-21T10:51:06.411Z,23.20
2018-11-21T10:53:35.006Z,21.27
2018-11-21T10:56:03.665Z,21.57
2018-11-21T10:58:32.331Z,22.15
2018-11-21T11:01:18.547Z,21.62
2018-11-21T11:04:15.373Z,20.20
2018-11-21T11:07:01.641Z,23.42
2018-11-21T11:09:47.929Z,21.35
2018-11-21T11:12:26.730Z,19.60
2018-11-21T11:15:12.717Z,18.10
2018-11-21T11:17:59.584Z,16.73
2018-11-21T11:20:46.370Z,19.32
2018-11-21T11:23:34.062Z,17.55
2018-11-21T11:26:34.393Z,18.17
2018-11-21T11:29:27.720Z,17.57
2018-11-21T11:32:14.067Z,16.07
2018-11-21T11:34:59.989Z,16.40
2018-11-21T11:37:59.280Z,13.78
2018-11-21T11:40:45.518Z,15.28
2018-11-21T11:43:36.010Z,16.48
2018-11-21T11:46:41.980Z,16.67
2018-11-21T11:49:32.230Z,17.15
2018-11-21T11:52:18.021Z,15.15
2018-11-21T11:55:04.201Z,17.75
2018-11-21T11:57:54.357Z,18.48
2018-11-21T12:00:42.235Z,16.60
2018-11-21T12:03:28.497Z,17.40
2018-11-21T12:06:14.695Z,16.00
2018-11-21T12:09:02.771Z,16.75
2018-11-21T12:11:49.971Z,15.80
2018-11-21T12:14:35.360Z,16.93
2018-11-21T12:17:24.890Z,17.07
2018-11-21T12:20:15.354Z,15.93
2018-11-21T12:23:03.181Z,17.90
2018-11-21T12:26:10.374Z,16.23
2018-11-21T12:28:53.076Z,15.25
2018-11-21T12:31:39.197Z,14.93
2018-11-21T12:34:32.648Z,15.35
2018-11-21T12:37:18.863Z,17.05
2018-11-21T12:40:13.272Z,15.08
2018-11-21T12:43:01.045Z,15.83
2018-11-21T12:46:07.799Z,14.95
2018-11-21T12:48:55.060Z,15.60
2018-11-21T12:51:51.647Z,15.72
2018-11-21T12:54:37.887Z,16.32
2018-11-21T12:57:16.349Z,16.30
2018-11-21T13:00:02.342Z,16.65
2018-11-21T13:02:48.433Z,15.90
2018-11-21T13:05:38.084Z,17.25
2018-11-21T13:08:43.721Z,15.88
2018-11-21T13:11:31.466Z,15.18
2018-11-21T13:14:10.852Z,17.48
2018-11-21T13:17:13.400Z,16.25
2018-11-21T13:20:06.646Z,16.02
2018-11-21T13:22:43.398Z,17.77
2018-11-21T13:25:30.372Z,17.52
2018-11-21T13:28:18.011Z,17.80
2018-11-21T13:31:06.403Z,16.30
2018-11-21T13:33:52.246Z,15.85
2018-11-21T13:36:39.910Z,15.93
2018-11-21T13:39:29.198Z,16.23
2018-11-21T13:42:04.143Z,20.40
2018-11-21T13:44:57.737Z,20.50
2018-11-21T13:47:40.656Z,19.70
2018-11-21T13:50:34.377Z,18.75
2018-11-21T13:53:30.671Z,17.62
2018-11-21T13:56:00.141Z,17.50
2018-11-21T13:58:28.847Z,16.12
2018-11-21T14:00:57.408Z,15.55
2018-11-21T14:03:26.038Z,13.85
2018-11-21T14:05:54.595Z,13.00
2018-11-21T14:08:23.196Z,15.68
2018-11-21T14:10:51.747Z,14.70
2018-11-21T14:13:20.320Z,14.45
2018-11-21T14:15:49.008Z,13.45
2018-11-21T14:18:17.576Z,13.88
2018-11-21T14:20:46.178Z,16.07
2018-11-21T14:23:15.379Z,15.85
2018-11-21T14:25:44.063Z,13.95
2018-11-21T14:28:12.607Z,15.20
2018-11-21T14:30:41.334Z,15.25
2018-11-21T14:33:09.941Z,16.25
2018-11-21T14:35:38.873Z,16.00
2018-11-21T14:38:07.608Z,15.48
2018-11-21T14:40:36.358Z,15.45
2018-11-21T14:43:05.084Z,18.82
2018-11-21T14:45:33.866Z,19.30
2018-11-21T14:48:02.491Z,23.60
2018-11-21T14:50:33.425Z,23.02
2018-11-21T14:53:02.021Z,23.10
2018-11-21T14:55:30.791Z,24.75
2018-11-21T14:57:59.417Z,25.23
2018-11-21T15:00:27.989Z,29.27
2018-11-21T15:02:57.076Z,26.75
2018-11-21T15:05:25.631Z,26.57
2018-11-21T15:07:55.630Z,23.38
2018-11-21T15:10:24.792Z,30.08
2018-11-21T15:12:53.466Z,27.10
2018-11-21T15:15:22.527Z,26.23
2018-11-21T15:17:51.115Z,26.20
2018-11-21T15:20:23.553Z,27.20
2018-11-21T15:22:52.176Z,26.73
2018-11-21T15:25:21.900Z,29.27
2018-11-21T15:27:50.385Z,38.73
2018-11-21T15:30:24.418Z,29.65
2018-11-21T15:32:52.967Z,28.23
2018-11-21T15:35:24.769Z,25.43
2018-11-21T15:37:53.449Z,25.77
2018-11-21T15:40:23.222Z,27.10
2018-11-21T15:42:52.199Z,28.62
2018-11-21T15:45:22.460Z,28.52
2018-11-21T15:47:52.933Z,28.25
2018-11-21T15:50:21.491Z,25.85
2018-11-21T15:52:53.108Z,24.45
2018-11-21T15:55:18.930Z,25.23
2018-11-21T15:57:47.671Z,27.90
2018-11-21T16:00:18.206Z,29.23
2018-11-21T16:02:47.821Z,26.95
2018-11-21T16:05:17.038Z,26.50
2018-11-21T16:07:45.647Z,26.37
2018-11-21T16:10:18.912Z,27.30
2018-11-21T16:12:44.399Z,24.32
2018-11-21T16:15:15.727Z,26.15
2018-11-21T16:17:44.257Z,24.25
2018-11-21T16:20:14.245Z,26.17
2018-11-21T16:22:42.892Z,25.20
2018-11-21T16:25:13.200Z,25.48
2018-11-21T16:27:42.535Z,26.80
2018-11-21T16:30:13.254Z,25.30
2018-11-21T16:32:42.252Z,25.45
2018-11-21T16:35:11.031Z,25.23
2018-11-21T16:37:40.620Z,24.63
2018-11-21T16:40:11.062Z,25.48
2018-11-21T16:42:40.221Z,27.02
2018-11-21T16:45:10.156Z,26.30
2018-11-21T16:47:38.894Z,26.87
2018-11-21T16:50:09.667Z,27.50
2018-11-21T16:52:38.332Z,29.92
2018-11-21T16:55:08.242Z,27.25
2018-11-21T16:57:36.842Z,25.85
2018-11-21T17:00:08.375Z,27.93
2018-11-21T17:02:39.261Z,28.57
2018-11-21T17:05:09.554Z,28.27
2018-11-21T17:07:38.561Z,26.00
2018-11-21T17:10:09.788Z,26.00
2018-11-21T17:12:38.452Z,26.00
2018-11-21T17:15:09.420Z,30.00
2018-11-21T17:17:37.954Z,28.70
2018-11-21T17:20:09.408Z,28.87
2018-11-21T17:22:38.038Z,27.13
2018-11-21T17:25:09.279Z,26.17
2018-11-21T17:27:37.942Z,25.82
2018-11-21T17:30:08.852Z,26.90
2018-11-21T17:32:37.605Z,28.40
2018-11-21T17:35:07.282Z,26.75
2018-11-21T17:37:36.070Z,29.35
2018-11-21T17:40:11.810Z,30.57
2018-11-21T17:42:40.526Z,30.27
2018-11-21T17:45:10.199Z,30.57
2018-11-21T17:47:38.991Z,28.35
2018-11-21T17:50:10.090Z,29.80
2018-11-21T17:52:38.776Z,28.92
2018-11-21T17:55:08.941Z,32.23
2018-11-21T17:57:37.651Z,31.40
2018-11-21T18:00:10.791Z,32.15
2018-11-21T18:02:39.966Z,31.10
2018-11-21T18:05:09.957Z,34.60
2018-11-21T18:07:38.743Z,31.52
2018-11-21T18:10:10.289Z,33.78
2018-11-21T18:12:39.242Z,32.23
2018-11-21T18:15:09.638Z,32.73
2018-11-21T18:17:38.329Z,33.28
2018-11-21T18:20:09.404Z,34.38
2018-11-21T18:22:38.163Z,37.23
2018-11-21T18:25:08.665Z,35.30
2018-11-21T18:27:37.570Z,36.08
2018-11-21T18:30:09.627Z,35.70
2018-11-21T18:32:38.381Z,33.58
2018-11-21T18:35:08.748Z,34.95
2018-11-21T18:37:37.403Z,36.00
2018-11-21T18:40:08.716Z,37.10
2018-11-21T18:42:37.454Z,34.90
2018-11-21T18:45:08.920Z,37.80
2018-11-21T18:47:37.698Z,34.53
2018-11-21T18:50:11.186Z,37.42
2018-11-21T18:52:37.155Z,37.73
2018-11-21T18:55:08.153Z,35.52
2018-11-21T18:58:14.562Z,38.25
2018-11-21T19:00:44.872Z,36.13
2018-11-21T19:03:13.601Z,37.35
2018-11-21T19:05:42.001Z,35.98
2018-11-21T19:08:10.699Z,36.20
2018-11-21T19:10:39.415Z,36.25
2018-11-21T19:13:08.209Z,37.98
2018-11-21T19:15:36.811Z,36.85
2018-11-21T19:18:05.729Z,38.00
2018-11-21T19:20:34.591Z,35.00
2018-11-21T19:23:03.219Z,38.75
2018-11-21T19:25:32.085Z,35.70
2018-11-21T19:28:00.857Z,36.73
2018-11-21T19:30:29.583Z,35.35
2018-11-21T19:32:58.428Z,38.67
2018-11-21T19:35:26.984Z,37.05
2018-11-21T19:37:55.646Z,36.28
2018-11-21T19:40:24.265Z,37.75
2018-11-21T19:42:52.833Z,37.45
2018-11-21T19:45:21.582Z,34.10
2018-11-21T19:47:50.901Z,36.00
2018-11-21T19:50:20.162Z,36.93
2018-11-21T19:52:49.380Z,35.30
2018-11-21T19:55:22.905Z,38.83
2018-11-21T19:57:51.671Z,35.23
2018-11-21T20:00:21.909Z,35.45
2018-11-21T20:02:50.816Z,36.70
2018-11-21T20:05:19.885Z,34.25
2018-11-21T20:07:48.949Z,36.35
2018-11-21T20:10:18.486Z,39.80
2018-11-21T20:12:47.526Z,35.48
2018-11-21T20:15:23.383Z,33.63
2018-11-21T20:17:53.696Z,33.25
2018-11-21T20:20:22.826Z,35.73
2018-11-21T20:22:54.340Z,36.75
2018-11-21T20:25:23.930Z,35.00
